createdAt,value
2018-09-04T00:00:06.142Z,2.63
2018-09-04T00:02:35.921Z,3.50
2018-09-04T00:05:05.868Z,3.17
2018-09-04T00:07:34.713Z,3.20
2018-09-04T00:10:03.739Z,3.30
2018-09-04T00:12:33.049Z,3.73
2018-09-04T00:15:02.648Z,3.63
2018-09-04T00:17:31.498Z,3.47
2018-09-04T00:20:00.283Z,3.20
2018-09-04T00:22:29.822Z,3.03
2018-09-04T00:24:58.627Z,3.80
2018-09-04T00:27:28.300Z,3.10
2018-09-04T00:29:57.898Z,3.53
2018-09-04T00:32:27.455Z,3.00
2018-09-04T00:34:56.827Z,3.50
2018-09-04T00:37:26.255Z,3.20
2018-09-04T00:39:55.905Z,3.37
2018-09-04T00:42:24.719Z,2.90
2018-09-04T00:44:53.969Z,3.33
2018-09-04T00:47:22.813Z,2.90
2018-09-04T00:49:51.560Z,3.97
2018-09-04T00:52:20.683Z,3.00
2018-09-04T00:54:49.833Z,3.43
2018-09-04T00:57:19.564Z,3.23
2018-09-04T00:59:48.407Z,3.80
2018-09-04T01:02:17.383Z,2.93
2018-09-04T01:04:48.358Z,3.77
2018-09-04T01:07:17.651Z,3.13
2018-09-04T01:09:46.480Z,3.63
2018-09-04T01:12:16.207Z,2.70
2018-09-04T01:14:44.970Z,3.43
2018-09-04T01:17:13.796Z,2.90
2018-09-04T01:19:42.634Z,3.60
2018-09-04T01:22:11.835Z,3.00
2018-09-04T01:24:40.651Z,3.60
2018-09-04T01:27:10.154Z,3.03
2018-09-04T01:29:39.684Z,4.00
2018-09-04T01:32:09.333Z,2.90
2018-09-04T01:34:38.839Z,3.27
2018-09-04T01:37:08.325Z,3.10
2018-09-04T01:39:37.640Z,2.97
2018-09-04T01:42:06.784Z,2.90
2018-09-04T01:44:37.518Z,3.67
2018-09-04T01:47:06.856Z,3.50
2018-09-04T01:49:37.301Z,3.20
2018-09-04T01:52:06.553Z,2.80
2018-09-04T01:54:35.562Z,2.97
2018-09-04T01:57:05.030Z,3.50
2018-09-04T01:59:33.787Z,3.00
2018-09-04T02:02:02.755Z,2.97
2018-09-04T02:04:32.050Z,3.30
2018-09-04T02:07:01.701Z,3.10
2018-09-04T02:09:31.250Z,3.13
2018-09-04T02:12:00.167Z,3.10
2018-09-04T02:14:28.907Z,3.40
2018-09-04T02:16:57.735Z,2.70
2018-09-04T02:19:26.555Z,3.37
2018-09-04T02:21:56.109Z,2.63
2018-09-04T02:24:24.893Z,3.80
2018-09-04T02:26:53.619Z,3.40
2018-09-04T02:29:23.733Z,3.50
2018-09-04T02:31:52.481Z,3.20
2018-09-04T02:34:21.945Z,3.77
2018-09-04T02:36:51.223Z,2.87
2018-09-04T02:39:20.988Z,4.30
2018-09-04T02:41:49.919Z,3.67
2018-09-04T02:44:19.016Z,3.87
2018-09-04T02:46:47.795Z,3.33
2018-09-04T02:49:16.795Z,3.63
2018-09-04T02:51:45.934Z,2.77
2018-09-04T02:54:14.965Z,3.97
2018-09-04T02:56:44.728Z,2.90
2018-09-04T02:59:14.088Z,3.03
2018-09-04T03:01:43.763Z,3.20
2018-09-04T03:04:12.640Z,3.60
2018-09-04T03:06:41.407Z,2.97
2018-09-04T03:09:11.115Z,3.13
2018-09-04T03:11:40.435Z,2.90
2018-09-04T03:14:09.195Z,3.53
2018-09-04T03:16:38.210Z,3.10
2018-09-04T03:19:07.634Z,3.00
2018-09-04T03:21:36.935Z,3.00
2018-09-04T03:24:07.431Z,3.33
2018-09-04T03:26:36.573Z,3.07
2018-09-04T03:29:06.347Z,2.87
2018-09-04T03:31:36.004Z,3.20
2018-09-04T03:34:05.786Z,3.03
2018-09-04T03:36:35.334Z,3.20
2018-09-04T03:39:05.405Z,3.03
2018-09-04T03:41:34.639Z,3.30
2018-09-04T03:44:03.544Z,3.23
2018-09-04T03:46:32.355Z,3.47
2018-09-04T03:49:01.292Z,3.00
2018-09-04T03:51:30.178Z,3.33
2018-09-04T03:53:59.071Z,3.20
2018-09-04T03:56:28.599Z,3.10
2018-09-04T03:58:57.807Z,3.33
2018-09-04T04:01:27.215Z,3.83
2018-09-04T04:03:56.623Z,4.63
2018-09-04T04:06:25.965Z,3.33
2018-09-04T04:08:54.702Z,3.63
2018-09-04T04:11:23.980Z,3.23
2018-09-04T04:13:52.796Z,4.47
2018-09-04T04:16:21.794Z,3.30
2018-09-04T04:18:50.754Z,4.10
2018-09-04T04:21:19.995Z,3.07
2018-09-04T04:23:49.840Z,4.03
2018-09-04T04:26:18.715Z,2.70
2018-09-04T04:28:47.812Z,3.27
2018-09-04T04:31:18.557Z,3.20
2018-09-04T04:33:48.611Z,4.30
2018-09-04T04:36:18.334Z,3.20
2018-09-04T04:38:48.469Z,3.33
2018-09-04T04:41:17.454Z,3.13
2018-09-04T04:43:46.741Z,3.90
2018-09-04T04:46:15.607Z,3.00
2018-09-04T04:48:44.396Z,3.00
2018-09-04T04:51:13.243Z,2.67
2018-09-04T04:53:42.582Z,3.60
2018-09-04T04:56:11.496Z,2.90
2018-09-04T04:58:41.289Z,3.27
2018-09-04T05:01:10.697Z,2.97
2018-09-04T05:03:40.421Z,3.50
2018-09-04T05:06:09.229Z,2.67
2018-09-04T05:08:38.409Z,3.40
2018-09-04T05:11:08.306Z,3.63
2018-09-04T05:13:38.336Z,3.67
2018-09-04T05:16:07.733Z,3.47
2018-09-04T05:18:37.083Z,3.37
2018-09-04T05:21:06.486Z,3.40
2018-09-04T05:23:36.422Z,3.30
2018-09-04T05:26:05.723Z,3.27
2018-09-04T05:28:35.659Z,3.63
2018-09-04T05:31:05.685Z,3.67
2018-09-04T05:33:38.284Z,3.77
2018-09-04T05:36:08.485Z,3.50
2018-09-04T05:38:39.808Z,3.90
2018-09-04T05:41:08.930Z,2.70
2018-09-04T05:43:53.585Z,3.40
2018-09-04T05:46:53.651Z,3.40
2018-09-04T05:49:26.512Z,3.90
2018-09-04T05:51:55.375Z,4.07
2018-09-04T05:54:24.273Z,3.90
2018-09-04T05:56:53.924Z,4.30
2018-09-04T05:59:22.865Z,4.37
2018-09-04T06:01:52.273Z,4.20
2018-09-04T06:04:21.747Z,3.50
2018-09-04T06:06:50.823Z,3.73
2018-09-04T06:09:20.914Z,3.43
2018-09-04T06:11:49.975Z,3.40
2018-09-04T06:14:18.968Z,3.20
2018-09-04T06:16:47.969Z,4.30
2018-09-04T06:19:16.812Z,3.17
2018-09-04T06:21:45.861Z,4.00
2018-09-04T06:24:15.464Z,3.43
2018-09-04T06:26:44.395Z,3.30
2018-09-04T06:29:13.238Z,2.97
2018-09-04T06:31:42.931Z,3.67
2018-09-04T06:34:12.521Z,3.40
2018-09-04T06:36:41.951Z,3.33
2018-09-04T06:39:11.807Z,3.17
2018-09-04T06:41:40.640Z,3.20
2018-09-04T06:44:09.434Z,2.83
2018-09-04T06:46:38.890Z,3.10
2018-09-04T06:49:08.232Z,3.33
2018-09-04T06:51:37.816Z,3.00
2018-09-04T06:54:07.172Z,3.50
2018-09-04T06:56:38.627Z,3.10
2018-09-04T06:59:08.493Z,3.07
2018-09-04T07:01:38.401Z,3.30
2018-09-04T07:04:07.743Z,3.43
2018-09-04T07:06:37.089Z,2.90
2018-09-04T07:09:08.779Z,3.47
2018-09-04T07:11:38.643Z,2.80
2018-09-04T07:14:08.100Z,2.87
2018-09-04T07:16:37.523Z,2.77
2018-09-04T07:19:07.547Z,3.00
2018-09-04T07:21:37.328Z,2.60
2018-09-04T07:24:07.015Z,2.60
2018-09-04T07:26:36.524Z,2.63
2018-09-04T07:29:05.671Z,2.40
2018-09-04T07:31:35.697Z,2.70
2018-09-04T07:34:05.747Z,2.50
2018-09-04T07:36:35.809Z,2.20
2018-09-04T07:39:07.616Z,2.10
2018-09-04T07:41:37.145Z,2.00
2018-09-04T07:44:06.579Z,2.40
2018-09-04T07:46:35.849Z,2.00
2018-09-04T07:49:05.246Z,2.50
2018-09-04T07:51:34.113Z,1.97
2018-09-04T07:54:02.924Z,2.70
2018-09-04T07:56:32.605Z,2.53
2018-09-04T07:59:02.311Z,3.07
2018-09-04T08:01:31.792Z,2.13
2018-09-04T08:04:00.572Z,2.93
2018-09-04T08:06:29.434Z,1.90
2018-09-04T08:08:58.231Z,2.90
2018-09-04T08:11:27.802Z,2.43
2018-09-04T08:13:56.554Z,3.40
2018-09-04T08:16:25.395Z,2.40
2018-09-04T08:18:54.106Z,3.37
2018-09-04T08:21:22.866Z,2.30
2018-09-04T08:23:52.203Z,3.00
2018-09-04T08:26:21.082Z,2.30
2018-09-04T08:28:49.984Z,2.90
2018-09-04T08:31:18.759Z,2.30
2018-09-04T08:33:48.572Z,3.50
2018-09-04T08:36:17.955Z,2.47
2018-09-04T08:38:49.400Z,2.77
2018-09-04T08:41:18.420Z,2.60
2018-09-04T08:43:47.555Z,3.13
2018-09-04T08:46:16.620Z,2.53
2018-09-04T08:48:45.379Z,2.87
2018-09-04T08:51:14.280Z,2.53
2018-09-04T08:53:43.826Z,2.93
2018-09-04T08:56:12.576Z,2.73
2018-09-04T08:58:42.296Z,2.80
2018-09-04T09:01:11.545Z,2.70
2018-09-04T09:03:40.864Z,2.43
2018-09-04T09:06:09.689Z,3.00
2018-09-04T09:08:38.514Z,2.40
2018-09-04T09:11:08.419Z,3.10
2018-09-04T09:13:37.664Z,2.83
2018-09-04T09:16:06.971Z,3.13
2018-09-04T09:18:36.238Z,2.60
2018-09-04T09:21:05.292Z,2.60
2018-09-04T09:23:35.072Z,2.77
2018-09-04T09:26:03.918Z,2.90
2018-09-04T09:29:03.243Z,2.40
2018-09-04T09:31:32.620Z,2.67
2018-09-04T09:34:02.046Z,2.63
2018-09-04T09:36:31.385Z,3.03
2018-09-04T09:39:00.603Z,2.80
2018-09-04T09:41:29.330Z,2.97
2018-09-04T09:43:58.083Z,2.60
2018-09-04T09:46:26.907Z,2.80
2018-09-04T09:48:55.660Z,2.47
2018-09-04T09:51:25.408Z,3.07
2018-09-04T09:53:54.204Z,2.40
2018-09-04T09:56:23.864Z,3.00
2018-09-04T09:58:53.221Z,2.40
2018-09-04T10:01:28.428Z,2.80
2018-09-04T10:04:01.920Z,3.00
2018-09-04T10:06:30.663Z,2.90
2018-09-04T10:08:59.445Z,2.80
2018-09-04T10:11:29.436Z,2.70
2018-09-04T10:13:58.385Z,3.00
2018-09-04T10:16:27.182Z,2.90
2018-09-04T10:18:56.092Z,2.53
2018-09-04T10:21:24.888Z,2.70
2018-09-04T10:23:54.210Z,2.83
2018-09-04T10:26:23.117Z,3.00
2018-09-04T10:28:51.933Z,2.57
2018-09-04T10:31:20.930Z,3.30
2018-09-04T10:33:50.748Z,2.90
2018-09-04T10:36:20.417Z,3.10
2018-09-04T10:38:49.813Z,2.93
2018-09-04T10:41:18.617Z,3.63
2018-09-04T10:43:47.536Z,2.60
2018-09-04T10:46:16.443Z,3.43
2018-09-04T10:48:45.732Z,3.00
2018-09-04T10:51:14.937Z,3.40
2018-09-04T10:53:43.703Z,3.40
2018-09-04T10:56:12.588Z,3.50
2018-09-04T10:58:42.005Z,2.93
2018-09-04T11:01:11.368Z,3.50
2018-09-04T11:03:40.244Z,3.00
2018-09-04T11:06:09.004Z,3.47
2018-09-04T11:08:38.184Z,3.03
2018-09-04T11:11:07.379Z,2.93
2018-09-04T11:13:36.604Z,2.90
2018-09-04T11:16:05.856Z,2.90
2018-09-04T11:18:34.743Z,2.80
2018-09-04T11:21:03.511Z,2.93
2018-09-04T11:23:33.022Z,2.67
2018-09-04T11:26:01.775Z,3.10
2018-09-04T11:28:30.789Z,3.50
2018-09-04T11:30:59.655Z,3.07
2018-09-04T11:33:29.271Z,3.10
2018-09-04T11:35:58.879Z,3.30
2018-09-04T11:38:28.467Z,3.30
2018-09-04T11:40:57.571Z,3.17
2018-09-04T11:46:10.100Z,3.23
2018-09-04T11:48:39.603Z,3.40
2018-09-04T11:51:10.891Z,4.57
2018-09-04T11:53:39.629Z,2.87
2018-09-04T11:56:08.566Z,3.23
2018-09-04T11:58:38.114Z,3.23
2018-09-04T12:01:11.217Z,3.40
2018-09-04T12:03:40.086Z,3.47
2018-09-04T12:06:08.909Z,3.40
2018-09-04T12:08:38.184Z,3.33
2018-09-04T12:11:07.552Z,3.13
2018-09-04T12:13:36.700Z,3.10
2018-09-04T12:16:05.925Z,3.53
2018-09-04T12:18:34.770Z,3.40
2018-09-04T12:21:08.500Z,3.43
2018-09-04T12:23:38.238Z,2.70
2018-09-04T12:26:10.070Z,3.40
2018-09-04T12:28:38.903Z,2.97
2018-09-04T12:31:08.645Z,3.33
2018-09-04T12:33:38.427Z,3.13
2018-09-04T12:36:08.359Z,3.83
2018-09-04T12:38:40.018Z,2.87
2018-09-04T12:41:14.677Z,3.30
2018-09-04T12:43:44.354Z,3.00
2018-09-04T12:46:13.167Z,3.43
2018-09-04T12:48:48.765Z,2.93
2018-09-04T12:51:17.655Z,3.23
2018-09-04T12:53:46.756Z,3.30
2018-09-04T12:56:15.925Z,3.30
2018-09-04T12:58:45.279Z,3.17
2018-09-04T13:01:15.171Z,3.90
2018-09-04T13:03:44.008Z,3.20
2018-09-04T13:06:12.813Z,3.33
2018-09-04T13:08:42.272Z,4.00
2018-09-04T13:11:11.787Z,2.80
2018-09-04T13:13:40.779Z,4.10
2018-09-04T13:16:09.685Z,2.80
2018-09-04T13:18:38.686Z,3.80
2018-09-04T13:21:08.393Z,2.73
2018-09-04T13:23:38.211Z,2.90
2018-09-04T13:26:07.536Z,3.30
2018-09-04T13:28:37.504Z,3.60
2018-09-04T13:31:06.864Z,3.03
2018-09-04T13:33:36.818Z,3.03
2018-09-04T13:36:06.451Z,3.20
2018-09-04T13:38:36.716Z,3.17
2018-09-04T13:41:08.838Z,3.13
2018-09-04T13:43:39.303Z,3.63
2018-09-04T13:46:08.384Z,3.10
2018-09-04T13:48:37.748Z,3.53
2018-09-04T13:51:07.194Z,3.30
2018-09-04T13:53:36.334Z,3.90
2018-09-04T13:56:05.718Z,3.30
2018-09-04T13:58:35.438Z,3.63
2018-09-04T14:01:04.837Z,3.10
2018-09-04T14:03:33.689Z,3.37
2018-09-04T14:06:02.541Z,2.83
2018-09-04T14:08:32.131Z,3.40
2018-09-04T14:11:00.967Z,2.93
2018-09-04T14:13:29.813Z,3.00
2018-09-04T14:16:01.248Z,3.43
2018-09-04T14:18:30.023Z,3.07
2018-09-04T14:20:58.824Z,3.17
2018-09-04T14:23:28.124Z,3.60
2018-09-04T14:25:56.892Z,3.20
2018-09-04T14:28:41.491Z,3.20
2018-09-04T14:30:54.685Z,3.10
2018-09-04T14:33:23.543Z,3.23
2018-09-04T14:35:52.829Z,2.90
2018-09-04T14:38:22.195Z,3.27
2018-09-04T14:40:51.771Z,3.27
2018-09-04T14:43:22.151Z,3.30
2018-09-04T14:45:53.845Z,3.10
2018-09-04T14:49:31.132Z,3.63
2018-09-04T14:52:00.014Z,3.47
2018-09-04T14:54:28.994Z,3.43
2018-09-04T14:56:58.503Z,3.13
2018-09-04T14:59:28.867Z,4.20
2018-09-04T15:01:58.307Z,3.07
2018-09-04T15:04:27.668Z,3.30
2018-09-04T15:06:56.440Z,2.93
2018-09-04T15:09:25.879Z,3.13
2018-09-04T15:11:54.651Z,3.37
2018-09-04T15:14:24.848Z,3.87
2018-09-04T15:16:55.655Z,3.83
2018-09-04T15:19:24.478Z,3.23
2018-09-04T15:21:53.274Z,3.30
2018-09-04T15:24:22.821Z,3.20
2018-09-04T15:26:51.636Z,3.33
2018-09-04T15:29:20.763Z,2.67
2018-09-04T15:31:49.962Z,3.33
2018-09-04T15:34:19.722Z,2.70
2018-09-04T15:36:50.578Z,3.47
2018-09-04T15:39:19.519Z,3.37
2018-09-04T15:41:48.565Z,2.93
2018-09-04T15:44:17.371Z,3.17
2018-09-04T15:46:46.257Z,3.00
2018-09-04T15:49:20.433Z,3.60
2018-09-04T15:51:49.492Z,3.17
2018-09-04T15:54:18.560Z,2.77
2018-09-04T15:56:47.623Z,2.90
2018-09-04T15:59:17.123Z,3.03
2018-09-04T16:01:46.567Z,3.00
2018-09-04T16:04:15.376Z,4.03
2018-09-04T16:06:44.196Z,3.20
2018-09-04T16:09:13.538Z,3.30
2018-09-04T16:11:42.410Z,2.90
2018-09-04T16:14:11.186Z,3.07
2018-09-04T16:16:41.475Z,2.73
2018-09-04T16:19:10.329Z,3.30
2018-09-04T16:21:53.810Z,2.97
2018-09-04T16:24:23.017Z,3.20
2018-09-04T16:26:51.829Z,3.07
2018-09-04T16:29:21.623Z,3.27
2018-09-04T16:31:50.630Z,3.30
2018-09-04T16:34:20.450Z,3.10
2018-09-04T16:36:50.883Z,3.37
2018-09-04T16:39:19.833Z,3.50
2018-09-04T16:41:48.884Z,3.67
2018-09-04T16:44:17.925Z,3.93
2018-09-04T16:46:46.946Z,3.37
2018-09-04T16:49:15.856Z,4.07
2018-09-04T16:51:45.236Z,3.17
2018-09-04T16:54:14.012Z,3.40
2018-09-04T16:56:42.871Z,4.03
2018-09-04T16:59:12.200Z,5.03
2018-09-04T17:01:41.667Z,4.07
2018-09-04T17:04:10.508Z,3.90
2018-09-04T17:06:39.319Z,4.00
2018-09-04T17:09:08.772Z,5.37
2018-09-04T17:11:38.396Z,4.50
2018-09-04T17:14:08.093Z,3.93
2018-09-04T17:16:37.292Z,3.97
2018-09-04T17:19:06.624Z,4.60
2018-09-04T17:21:35.848Z,4.37
2018-09-04T17:24:06.321Z,4.50
2018-09-04T17:26:35.472Z,4.20
2018-09-04T17:29:04.890Z,4.80
2018-09-04T17:31:34.111Z,3.73
2018-09-04T17:34:03.527Z,4.10
2018-09-04T17:36:32.878Z,3.63
2018-09-04T17:39:02.467Z,5.50
2018-09-04T17:41:31.254Z,4.00
2018-09-04T17:44:00.015Z,4.20
2018-09-04T17:46:28.870Z,3.30
2018-09-04T17:48:57.639Z,3.87
2018-09-04T17:51:26.633Z,3.60
2018-09-04T17:53:55.774Z,4.23
2018-09-04T17:56:24.518Z,3.87
2018-09-04T17:58:53.971Z,3.43
2018-09-04T18:01:24.208Z,3.23
2018-09-04T18:03:53.638Z,4.10
2018-09-04T18:06:23.087Z,5.77
2018-09-04T18:08:52.459Z,8.47
2018-09-04T18:11:21.330Z,5.80
2018-09-04T18:13:50.135Z,6.50
2018-09-04T18:16:18.953Z,4.63
2018-09-04T18:18:47.814Z,4.60
2018-09-04T18:21:16.673Z,4.50
2018-09-04T18:23:46.244Z,4.20
2018-09-04T18:26:15.088Z,4.40
2018-09-04T18:28:45.052Z,4.40
2018-09-04T18:31:13.876Z,4.80
2018-09-04T18:33:43.417Z,4.03
2018-09-04T18:36:12.653Z,4.47
2018-09-04T18:38:41.981Z,4.33
2018-09-04T18:41:10.744Z,4.67
2018-09-04T18:43:39.558Z,3.90
2018-09-04T18:46:08.412Z,4.87
2018-09-04T18:48:37.679Z,3.63
2018-09-04T18:51:08.047Z,4.30
2018-09-04T18:53:37.142Z,3.77
2018-09-04T18:56:06.970Z,5.87
2018-09-04T18:58:36.510Z,4.10
2018-09-04T19:01:06.795Z,4.53
2018-09-04T19:03:35.968Z,4.47
2018-09-04T19:06:05.618Z,4.00
2018-09-04T19:08:35.253Z,4.10
2018-09-04T19:11:04.823Z,5.70
2018-09-04T19:13:33.625Z,3.90
2018-09-04T19:16:02.884Z,4.93
2018-09-04T19:18:31.647Z,4.13
2018-09-04T19:21:00.613Z,4.30
2018-09-04T19:23:30.252Z,4.13
2018-09-04T19:25:59.240Z,4.30
2018-09-04T19:28:28.772Z,4.17
2018-09-04T19:30:57.688Z,4.40
2018-09-04T19:33:26.481Z,4.40
2018-09-04T19:35:55.771Z,4.40
2018-09-04T19:38:25.562Z,4.30
2018-09-04T19:40:55.169Z,4.13
2018-09-04T19:43:23.977Z,4.80
2018-09-04T19:45:52.808Z,3.53
2018-09-04T19:48:21.683Z,5.10
2018-09-04T19:50:50.690Z,3.97
2018-09-04T19:53:19.915Z,4.80
2018-09-04T19:55:49.073Z,4.17
2018-09-04T19:58:18.489Z,4.50
2018-09-04T20:00:48.058Z,4.23
2018-09-04T20:03:16.878Z,5.90
2018-09-04T20:05:45.708Z,4.50
2018-09-04T20:08:14.956Z,5.00
2018-09-04T20:10:44.195Z,4.50
2018-09-04T20:13:13.028Z,5.10
2018-09-04T20:15:41.732Z,4.50
2018-09-04T20:18:10.554Z,6.30
2018-09-04T20:20:39.301Z,4.50
2018-09-04T20:23:09.011Z,4.90
2018-09-04T20:25:38.495Z,4.27
2018-09-04T20:28:08.939Z,4.93
2018-09-04T20:30:38.643Z,4.73
2018-09-04T20:33:07.858Z,5.37
2018-09-04T20:35:37.743Z,5.23
2018-09-04T20:38:07.779Z,5.57
2018-09-04T20:40:37.058Z,4.40
2018-09-04T20:43:06.729Z,4.87
2018-09-04T20:45:35.764Z,4.33
2018-09-04T20:48:05.887Z,5.17
2018-09-04T20:50:35.183Z,4.50
2018-09-04T20:53:04.732Z,5.43
2018-09-04T20:55:33.606Z,5.03
2018-09-04T20:58:14.031Z,5.97
2018-09-04T21:00:54.323Z,4.90
2018-09-04T21:03:34.035Z,5.50
2018-09-04T21:06:13.878Z,5.27
2018-09-04T21:08:53.791Z,5.40
2018-09-04T21:11:22.735Z,5.07
2018-09-04T21:13:51.571Z,5.10
2018-09-04T21:16:21.338Z,5.57
2018-09-04T21:18:51.222Z,7.27
2018-09-04T21:21:20.397Z,5.33
2018-09-04T21:23:50.181Z,5.50
2018-09-04T21:26:19.594Z,5.13
2018-09-04T21:28:49.826Z,4.87
2018-09-04T21:31:18.678Z,5.33
2018-09-04T21:33:49.160Z,6.63
2018-09-04T21:36:18.600Z,5.53
2018-09-04T21:38:48.531Z,5.40
2018-09-04T21:41:17.422Z,5.00
2018-09-04T21:43:46.274Z,5.20
2018-09-04T21:46:15.147Z,4.87
2018-09-04T21:48:43.907Z,4.87
2018-09-04T21:51:12.827Z,5.03
2018-09-04T21:53:41.715Z,5.40
2018-09-04T21:56:10.572Z,5.43
2018-09-04T21:58:40.214Z,4.87
2018-09-04T22:01:09.724Z,5.63
2018-09-04T22:03:38.517Z,4.80
2018-09-04T22:06:07.899Z,6.53
2018-09-04T22:08:38.545Z,4.97
2018-09-04T22:11:07.738Z,6.20
2018-09-04T22:13:37.412Z,5.70
2018-09-04T22:16:07.329Z,6.03
2018-09-04T22:18:36.803Z,5.60
2018-09-04T22:21:07.004Z,7.03
2018-09-04T22:23:36.911Z,6.17
2018-09-04T22:26:05.937Z,5.87
2018-09-04T22:28:36.051Z,5.53
2018-09-04T22:31:05.398Z,6.27
2018-09-04T22:33:34.186Z,5.00
2018-09-04T22:36:03.980Z,8.17
2018-09-04T22:38:33.480Z,6.00
2018-09-04T22:41:02.268Z,5.20
2018-09-04T22:43:31.187Z,5.83
2018-09-04T22:46:00.043Z,5.87
2018-09-04T22:48:29.819Z,6.83
2018-09-04T22:51:03.837Z,5.30
2018-09-04T22:53:32.768Z,5.50
2018-09-04T22:56:01.557Z,5.30
2018-09-04T22:58:31.167Z,6.87
2018-09-04T23:01:00.984Z,5.60
2018-09-04T23:03:29.770Z,6.13
2018-09-04T23:05:58.687Z,5.93
2018-09-04T23:08:28.160Z,6.77
2018-09-04T23:10:57.384Z,5.30
2018-09-04T23:13:26.272Z,5.80
2018-09-04T23:15:55.117Z,5.50
2018-09-04T23:18:24.801Z,6.57
2018-09-04T23:20:53.719Z,6.17
2018-09-04T23:23:23.094Z,6.90
2018-09-04T23:25:51.905Z,5.60
2018-09-04T23:28:21.481Z,6.47
2018-09-04T23:30:50.932Z,5.10
2018-09-04T23:33:19.999Z,6.00
2018-09-04T23:35:49.342Z,5.67
2018-09-04T23:38:20.694Z,5.53
2018-09-04T23:40:49.709Z,5.53
2018-09-04T23:43:18.527Z,5.93
2018-09-04T23:45:47.438Z,5.60
2018-09-04T23:48:16.225Z,5.73
2018-09-04T23:50:45.136Z,5.17
2018-09-04T23:53:14.225Z,5.40
2018-09-04T23:55:43.070Z,5.87
2018-09-04T23:58:12.339Z,5.87
